sensor_id;sensor_type;location;lat;lon;timestamp;pressure;altitude;pressure_sealevel;temperature;humidity
11395;BME280;5753;54.402;10.220;2023-01-04T00:00:15;101945.94;;;15.16;52.98
11395;BME280;5753;54.402;10.220;2023-01-04T00:02:41;101936.72;;;15.39;52.40
11395;BME280;5753;54.402;10.220;2023-01-04T00:05:07;101936.53;;;15.25;52.27
11395;BME280;5753;54.402;10.220;2023-01-04T00:07:33;101925.63;;;14.90;53.21
11395;BME280;5753;54.402;10.220;2023-01-04T00:09:59;101920.63;;;14.49;55.23
11395;BME280;5753;54.402;10.220;2023-01-04T00:12:25;101925.06;;;13.26;57.09
11395;BME280;5753;54.402;10.220;2023-01-04T00:14:52;101907.63;;;15.63;52.43
11395;BME280;5753;54.402;10.220;2023-01-04T00:17:18;101908.06;;;15.33;52.35
11395;BME280;5753;54.402;10.220;2023-01-04T00:19:44;101905.41;;;14.21;54.16
11395;BME280;5753;54.402;10.220;2023-01-04T00:22:10;101895.47;;;13.99;56.16
11395;BME280;5753;54.402;10.220;2023-01-04T00:24:36;101896.84;;;15.35;52.89
11395;BME280;5753;54.402;10.220;2023-01-04T00:27:02;101887.16;;;15.24;52.97
11395;BME280;5753;54.402;10.220;2023-01-04T00:29:28;101892.97;;;14.03;55.30
11395;BME280;5753;54.402;10.220;2023-01-04T00:31:54;101880.06;;;14.55;54.59
11395;BME280;5753;54.402;10.220;2023-01-04T00:34:20;101874.44;;;15.43;52.69
11395;BME280;5753;54.402;10.220;2023-01-04T00:36:46;101867.25;;;15.24;52.76
11395;BME280;5753;54.402;10.220;2023-01-04T00:39:14;101861.16;;;13.67;56.87
11395;BME280;5753;54.402;10.220;2023-01-04T00:41:51;101850.84;;;15.27;53.25
11395;BME280;5753;54.402;10.220;2023-01-04T00:44:18;101851.44;;;14.00;55.82
11395;BME280;5753;54.402;10.220;2023-01-04T00:46:46;101858.56;;;14.13;56.08
11395;BME280;5753;54.402;10.220;2023-01-04T00:49:13;101848.97;;;14.08;56.55
11395;BME280;5753;54.402;10.220;2023-01-04T00:51:41;101838.84;;;14.20;55.74
11395;BME280;5753;54.402;10.220;2023-01-04T00:54:11;101834.03;;;13.48;58.46
11395;BME280;5753;54.402;10.220;2023-01-04T00:56:37;101815.88;;;13.07;59.45
11395;BME280;5753;54.402;10.220;2023-01-04T00:59:04;101814.25;;;13.12;59.92
11395;BME280;5753;54.402;10.220;2023-01-04T01:01:32;101799.97;;;12.51;61.65
11395;BME280;5753;54.402;10.220;2023-01-04T01:04:01;101799.09;;;14.21;58.48
11395;BME280;5753;54.402;10.220;2023-01-04T01:06:29;101775.56;;;14.65;56.37
11395;BME280;5753;54.402;10.220;2023-01-04T01:08:56;101783.13;;;13.50;58.26
11395;BME280;5753;54.402;10.220;2023-01-04T01:11:22;101765.53;;;13.32;59.93
11395;BME280;5753;54.402;10.220;2023-01-04T01:13:49;101765.09;;;13.56;58.52
11395;BME280;5753;54.402;10.220;2023-01-04T01:16:18;101763.88;;;12.95;60.26
11395;BME280;5753;54.402;10.220;2023-01-04T01:18:45;101746.00;;;14.54;57.55
11395;BME280;5753;54.402;10.220;2023-01-04T01:21:13;101767.88;;;13.67;58.62
11395;BME280;5753;54.402;10.220;2023-01-04T01:23:41;101756.09;;;13.36;60.54
11395;BME280;5753;54.402;10.220;2023-01-04T01:26:12;101753.03;;;12.74;63.20
11395;BME280;5753;54.402;10.220;2023-01-04T01:28:39;101741.41;;;13.35;60.18
11395;BME280;5753;54.402;10.220;2023-01-04T01:31:13;101736.97;;;13.74;60.34
11395;BME280;5753;54.402;10.220;2023-01-04T01:33:41;101735.88;;;13.18;62.61
11395;BME280;5753;54.402;10.220;2023-01-04T01:36:08;101727.13;;;12.71;62.41
11395;BME280;5753;54.402;10.220;2023-01-04T01:38:35;101715.56;;;13.88;59.10
11395;BME280;5753;54.402;10.220;2023-01-04T01:41:02;101709.50;;;13.36;60.08
11395;BME280;5753;54.402;10.220;2023-01-04T01:43:49;101704.78;;;14.16;58.78
11395;BME280;5753;54.402;10.220;2023-01-04T01:46:39;101696.88;;;13.55;59.72
11395;BME280;5753;54.402;10.220;2023-01-04T01:51:43;101679.78;;;12.75;62.51
11395;BME280;5753;54.402;10.220;2023-01-04T01:54:22;101685.66;;;12.28;64.48
11395;BME280;5753;54.402;10.220;2023-01-04T01:56:53;101679.31;;;13.89;60.25
11395;BME280;5753;54.402;10.220;2023-01-04T01:59:21;101674.06;;;13.84;60.32
11395;BME280;5753;54.402;10.220;2023-01-04T02:01:47;101679.66;;;14.71;57.46
11395;BME280;5753;54.402;10.220;2023-01-04T02:04:14;101661.81;;;14.32;59.30
11395;BME280;5753;54.402;10.220;2023-01-04T02:06:47;101646.28;;;13.25;62.49
11395;BME280;5753;54.402;10.220;2023-01-04T02:09:15;101627.78;;;14.74;57.40
11395;BME280;5753;54.402;10.220;2023-01-04T02:11:42;101622.69;;;14.16;58.25
11395;BME280;5753;54.402;10.220;2023-01-04T02:14:09;101613.66;;;13.89;59.20
11395;BME280;5753;54.402;10.220;2023-01-04T02:17:10;101603.38;;;13.95;58.66
11395;BME280;5753;54.402;10.220;2023-01-04T02:20:11;101595.09;;;14.93;56.64
11395;BME280;5753;54.402;10.220;2023-01-04T02:31:43;101557.88;;;13.54;59.57
11395;BME280;5753;54.402;10.220;2023-01-04T02:45:24;101508.69;;;14.21;58.31
11395;BME280;5753;54.402;10.220;2023-01-04T02:47:52;101508.59;;;14.94;55.97
11395;BME280;5753;54.402;10.220;2023-01-04T02:50:53;101498.91;;;13.99;57.90
11395;BME280;5753;54.402;10.220;2023-01-04T02:53:32;101489.53;;;14.10;57.59
11395;BME280;5753;54.402;10.220;2023-01-04T02:56:28;101479.34;;;14.25;58.19
11395;BME280;5753;54.402;10.220;2023-01-04T03:01:55;101462.38;;;12.67;61.29
11395;BME280;5753;54.402;10.220;2023-01-04T03:04:48;101449.41;;;13.17;60.99
11395;BME280;5753;54.402;10.220;2023-01-04T03:10:39;101418.59;;;14.03;59.82
11395;BME280;5753;54.402;10.220;2023-01-04T03:13:23;101415.81;;;14.67;56.99
11395;BME280;5753;54.402;10.220;2023-01-04T03:16:00;101395.50;;;14.23;57.14
11395;BME280;5753;54.402;10.220;2023-01-04T03:18:31;101399.31;;;13.77;58.49
11395;BME280;5753;54.402;10.220;2023-01-04T03:21:00;101393.94;;;14.42;57.88
11395;BME280;5753;54.402;10.220;2023-01-04T03:23:33;101382.50;;;13.44;60.14
11395;BME280;5753;54.402;10.220;2023-01-04T03:26:25;101365.50;;;13.68;60.59
11395;BME280;5753;54.402;10.220;2023-01-04T03:29:38;101363.03;;;13.75;60.84
11395;BME280;5753;54.402;10.220;2023-01-04T03:35:40;101338.72;;;13.67;63.27
11395;BME280;5753;54.402;10.220;2023-01-04T03:38:13;101353.31;;;13.59;62.79
11395;BME280;5753;54.402;10.220;2023-01-04T03:41:36;101335.00;;;14.26;60.27
11395;BME280;5753;54.402;10.220;2023-01-04T03:44:42;101322.06;;;14.27;62.01
11395;BME280;5753;54.402;10.220;2023-01-04T03:47:43;101315.72;;;15.13;58.13
11395;BME280;5753;54.402;10.220;2023-01-04T03:50:41;101313.03;;;13.14;65.35
11395;BME280;5753;54.402;10.220;2023-01-04T03:53:09;101331.63;;;13.49;63.80
11395;BME280;5753;54.402;10.220;2023-01-04T03:55:37;101305.19;;;13.08;66.29
11395;BME280;5753;54.402;10.220;2023-01-04T03:58:05;101286.78;;;13.55;66.67
11395;BME280;5753;54.402;10.220;2023-01-04T04:00:31;101281.69;;;12.93;69.51
11395;BME280;5753;54.402;10.220;2023-01-04T04:02:58;101285.78;;;14.32;62.37
11395;BME280;5753;54.402;10.220;2023-01-04T04:05:42;101286.03;;;12.96;66.38
11395;BME280;5753;54.402;10.220;2023-01-04T04:08:28;101285.66;;;12.70;70.26
11395;BME280;5753;54.402;10.220;2023-01-04T04:11:03;101264.38;;;13.57;69.01
11395;BME280;5753;54.402;10.220;2023-01-04T04:13:49;101245.03;;;14.17;65.51
11395;BME280;5753;54.402;10.220;2023-01-04T04:16:16;101239.28;;;14.55;63.76
11395;BME280;5753;54.402;10.220;2023-01-04T04:18:42;101249.44;;;13.32;68.97
11395;BME280;5753;54.402;10.220;2023-01-04T04:21:08;101221.28;;;12.89;73.00
11395;BME280;5753;54.402;10.220;2023-01-04T04:23:34;101240.84;;;14.31;65.52
11395;BME280;5753;54.402;10.220;2023-01-04T04:26:00;101210.38;;;13.16;69.92
11395;BME280;5753;54.402;10.220;2023-01-04T04:28:26;101209.22;;;13.70;68.53
11395;BME280;5753;54.402;10.220;2023-01-04T04:30:52;101189.16;;;12.74;69.14
11395;BME280;5753;54.402;10.220;2023-01-04T04:33:18;101189.16;;;14.59;65.37
11395;BME280;5753;54.402;10.220;2023-01-04T04:35:48;101186.03;;;13.79;65.57
11395;BME280;5753;54.402;10.220;2023-01-04T04:38:14;101173.75;;;14.95;61.83
11395;BME280;5753;54.402;10.220;2023-01-04T04:40:40;101175.59;;;13.72;68.47
11395;BME280;5753;54.402;10.220;2023-01-04T04:43:25;101179.25;;;13.09;69.97
11395;BME280;5753;54.402;10.220;2023-01-04T04:45:51;101145.72;;;12.45;72.39
11395;BME280;5753;54.402;10.220;2023-01-04T04:48:17;101170.81;;;11.93;77.76
11395;BME280;5753;54.402;10.220;2023-01-04T04:50:43;101153.34;;;12.35;76.99
11395;BME280;5753;54.402;10.220;2023-01-04T04:53:09;101151.38;;;13.71;71.39
11395;BME280;5753;54.402;10.220;2023-01-04T04:55:35;101131.41;;;13.55;70.17
11395;BME280;5753;54.402;10.220;2023-01-04T04:58:02;101117.94;;;14.02;70.83
11395;BME280;5753;54.402;10.220;2023-01-04T05:00:28;101100.09;;;14.61;67.63
11395;BME280;5753;54.402;10.220;2023-01-04T05:02:56;101102.09;;;12.05;79.26
11395;BME280;5753;54.402;10.220;2023-01-04T05:05:23;101109.72;;;13.42;72.74
11395;BME280;5753;54.402;10.220;2023-01-04T05:07:49;101081.38;;;12.73;79.98
11395;BME280;5753;54.402;10.220;2023-01-04T05:10:15;101103.97;;;13.80;73.62
11395;BME280;5753;54.402;10.220;2023-01-04T05:12:41;101074.75;;;14.04;73.04
11395;BME280;5753;54.402;10.220;2023-01-04T05:15:37;101076.13;;;11.41;82.91
11395;BME280;5753;54.402;10.220;2023-01-04T05:18:04;101056.66;;;12.99;78.83
11395;BME280;5753;54.402;10.220;2023-01-04T05:20:31;101041.44;;;13.30;77.21
11395;BME280;5753;54.402;10.220;2023-01-04T05:22:57;101037.72;;;13.03;76.06
11395;BME280;5753;54.402;10.220;2023-01-04T05:25:23;101032.91;;;13.40;74.54
11395;BME280;5753;54.402;10.220;2023-01-04T05:27:49;101039.50;;;13.10;80.08
11395;BME280;5753;54.402;10.220;2023-01-04T05:30:16;101014.56;;;14.93;67.84
11395;BME280;5753;54.402;10.220;2023-01-04T05:33:01;101025.91;;;12.43;83.72
11395;BME280;5753;54.402;10.220;2023-01-04T05:35:27;101000.66;;;12.21;83.08
11395;BME280;5753;54.402;10.220;2023-01-04T05:37:54;100997.69;;;11.89;85.49
11395;BME280;5753;54.402;10.220;2023-01-04T05:40:20;100994.09;;;13.47;77.78
11395;BME280;5753;54.402;10.220;2023-01-04T05:42:48;100973.06;;;13.06;78.16
11395;BME280;5753;54.402;10.220;2023-01-04T05:45:15;100970.03;;;13.64;77.85
11395;BME280;5753;54.402;10.220;2023-01-04T05:47:42;100971.16;;;12.84;81.89
11395;BME280;5753;54.402;10.220;2023-01-04T05:50:09;100965.75;;;12.61;82.17
11395;BME280;5753;54.402;10.220;2023-01-04T05:52:35;100947.66;;;12.61;82.46
11395;BME280;5753;54.402;10.220;2023-01-04T05:55:02;100945.72;;;13.40;77.64
11395;BME280;5753;54.402;10.220;2023-01-04T05:57:28;100927.22;;;12.90;78.06
11395;BME280;5753;54.402;10.220;2023-01-04T05:59:54;100936.28;;;13.47;77.29
11395;BME280;5753;54.402;10.220;2023-01-04T06:02:24;100939.94;;;12.66;84.09
11395;BME280;5753;54.402;10.220;2023-01-04T06:04:50;100942.41;;;12.50;82.53
11395;BME280;5753;54.402;10.220;2023-01-04T06:07:17;100919.00;;;13.46;77.57
11395;BME280;5753;54.402;10.220;2023-01-04T06:09:43;100905.63;;;12.85;82.24
11395;BME280;5753;54.402;10.220;2023-01-04T06:12:10;100898.47;;;13.92;74.17
11395;BME280;5753;54.402;10.220;2023-01-04T06:14:36;100894.91;;;11.65;89.09
11395;BME280;5753;54.402;10.220;2023-01-04T06:17:03;100902.78;;;12.54;86.45
11395;BME280;5753;54.402;10.220;2023-01-04T06:19:29;100887.09;;;13.51;80.62
11395;BME280;5753;54.402;10.220;2023-01-04T06:21:55;100890.69;;;13.84;77.85
11395;BME280;5753;54.402;10.220;2023-01-04T06:24:22;100893.31;;;13.95;77.77
11395;BME280;5753;54.402;10.220;2023-01-04T06:26:48;100892.28;;;13.56;80.73
11395;BME280;5753;54.402;10.220;2023-01-04T06:29:14;100871.59;;;13.65;78.13
11395;BME280;5753;54.402;10.220;2023-01-04T06:31:41;100870.63;;;13.33;83.28
11395;BME280;5753;54.402;10.220;2023-01-04T06:34:09;100886.28;;;13.63;83.66
11395;BME280;5753;54.402;10.220;2023-01-04T06:36:35;100859.25;;;13.14;80.84
11395;BME280;5753;54.402;10.220;2023-01-04T06:39:01;100857.00;;;13.85;82.66
11395;BME280;5753;54.402;10.220;2023-01-04T06:41:27;100845.19;;;11.80;91.06
11395;BME280;5753;54.402;10.220;2023-01-04T06:43:53;100821.69;;;14.52;78.86
11395;BME280;5753;54.402;10.220;2023-01-04T06:46:19;100844.09;;;14.11;79.36
11395;BME280;5753;54.402;10.220;2023-01-04T06:48:45;100821.44;;;13.34;88.89
11395;BME280;5753;54.402;10.220;2023-01-04T06:51:12;100825.84;;;13.69;83.99
11395;BME280;5753;54.402;10.220;2023-01-04T06:53:38;100816.13;;;13.14;86.14
11395;BME280;5753;54.402;10.220;2023-01-04T06:56:06;100811.25;;;14.09;83.26
11395;BME280;5753;54.402;10.220;2023-01-04T06:58:34;100806.94;;;14.12;83.60
11395;BME280;5753;54.402;10.220;2023-01-04T07:01:00;100804.50;;;12.48;90.75
11395;BME280;5753;54.402;10.220;2023-01-04T07:03:26;100789.13;;;12.70;88.50
11395;BME280;5753;54.402;10.220;2023-01-04T07:05:52;100773.25;;;13.88;81.85
11395;BME280;5753;54.402;10.220;2023-01-04T07:08:18;100765.41;;;13.65;82.96
11395;BME280;5753;54.402;10.220;2023-01-04T07:10:44;100780.13;;;13.75;82.46
11395;BME280;5753;54.402;10.220;2023-01-04T07:13:11;100790.22;;;13.13;88.94
11395;BME280;5753;54.402;10.220;2023-01-04T07:15:37;100784.00;;;12.76;91.25
11395;BME280;5753;54.402;10.220;2023-01-04T07:18:03;100779.28;;;14.77;80.09
11395;BME280;5753;54.402;10.220;2023-01-04T07:20:29;100761.69;;;12.96;90.55
11395;BME280;5753;54.402;10.220;2023-01-04T07:22:55;100752.53;;;14.43;80.96
11395;BME280;5753;54.402;10.220;2023-01-04T07:25:22;100736.91;;;13.62;90.61
11395;BME280;5753;54.402;10.220;2023-01-04T07:27:52;100761.19;;;14.45;82.20
11395;BME280;5753;54.402;10.220;2023-01-04T07:30:19;100746.47;;;14.30;85.54
11395;BME280;5753;54.402;10.220;2023-01-04T07:32:45;100736.06;;;14.64;78.58
11395;BME280;5753;54.402;10.220;2023-01-04T07:35:11;100752.44;;;13.45;86.73
11395;BME280;5753;54.402;10.220;2023-01-04T07:37:38;100727.25;;;15.20;78.39
11395;BME280;5753;54.402;10.220;2023-01-04T07:40:06;100748.19;;;13.95;84.85
11395;BME280;5753;54.402;10.220;2023-01-04T07:42:33;100735.22;;;14.51;86.18
11395;BME280;5753;54.402;10.220;2023-01-04T07:44:59;100737.84;;;13.89;90.32
11395;BME280;5753;54.402;10.220;2023-01-04T07:47:27;100721.34;;;13.39;89.79
11395;BME280;5753;54.402;10.220;2023-01-04T07:49:53;100712.31;;;15.63;79.44
11395;BME280;5753;54.402;10.220;2023-01-04T07:52:19;100718.25;;;15.79;77.15
11395;BME280;5753;54.402;10.220;2023-01-04T07:54:45;100713.63;;;14.17;85.27
11395;BME280;5753;54.402;10.220;2023-01-04T07:57:11;100713.66;;;14.28;85.22
11395;BME280;5753;54.402;10.220;2023-01-04T07:59:37;100704.44;;;15.70;76.56
11395;BME280;5753;54.402;10.220;2023-01-04T08:02:03;100709.72;;;15.63;76.75
11395;BME280;5753;54.402;10.220;2023-01-04T08:04:30;100685.00;;;14.79;84.22
11395;BME280;5753;54.402;10.220;2023-01-04T08:06:56;100716.03;;;15.04;83.49
11395;BME280;5753;54.402;10.220;2023-01-04T08:09:22;100704.00;;;14.86;84.07
11395;BME280;5753;54.402;10.220;2023-01-04T08:11:48;100699.09;;;15.89;78.16
11395;BME280;5753;54.402;10.220;2023-01-04T08:14:14;100706.66;;;14.65;87.38
11395;BME280;5753;54.402;10.220;2023-01-04T08:16:41;100701.28;;;15.10;84.40
11395;BME280;5753;54.402;10.220;2023-01-04T08:19:15;100704.75;;;15.19;84.48
11395;BME280;5753;54.402;10.220;2023-01-04T08:21:42;100697.44;;;15.79;81.45
11395;BME280;5753;54.402;10.220;2023-01-04T08:24:11;100713.38;;;16.40;74.55
11395;BME280;5753;54.402;10.220;2023-01-04T08:26:37;100697.81;;;15.11;84.89
11395;BME280;5753;54.402;10.220;2023-01-04T08:29:03;100694.59;;;14.36;89.63
11395;BME280;5753;54.402;10.220;2023-01-04T08:31:31;100692.06;;;13.75;95.14
11395;BME280;5753;54.402;10.220;2023-01-04T08:34:00;100706.53;;;15.00;87.65
11395;BME280;5753;54.402;10.220;2023-01-04T08:36:32;100694.44;;;14.97;86.32
11395;BME280;5753;54.402;10.220;2023-01-04T08:39:03;100691.75;;;15.19;88.06
11395;BME280;5753;54.402;10.220;2023-01-04T08:41:32;100682.44;;;14.66;89.01
11395;BME280;5753;54.402;10.220;2023-01-04T08:43:58;100675.63;;;14.16;95.34
11395;BME280;5753;54.402;10.220;2023-01-04T08:46:24;100670.44;;;13.64;98.54
11395;BME280;5753;54.402;10.220;2023-01-04T08:48:51;100672.16;;;14.26;95.32
11395;BME280;5753;54.402;10.220;2023-01-04T08:51:17;100674.72;;;14.54;93.85
11395;BME280;5753;54.402;10.220;2023-01-04T08:53:43;100662.47;;;14.88;93.21
11395;BME280;5753;54.402;10.220;2023-01-04T08:56:10;100666.44;;;15.51;88.74
11395;BME280;5753;54.402;10.220;2023-01-04T08:58:37;100657.44;;;14.48;94.97
11395;BME280;5753;54.402;10.220;2023-01-04T09:01:08;100649.72;;;14.07;100.00
11395;BME280;5753;54.402;10.220;2023-01-04T09:03:36;100649.47;;;14.95;98.01
11395;BME280;5753;54.402;10.220;2023-01-04T09:06:07;100650.50;;;15.97;92.57
11395;BME280;5753;54.402;10.220;2023-01-04T09:08:34;100642.72;;;14.55;100.00
11395;BME280;5753;54.402;10.220;2023-01-04T09:11:12;100652.94;;;14.93;97.53
11395;BME280;5753;54.402;10.220;2023-01-04T09:13:38;100641.13;;;15.81;92.23
11395;BME280;5753;54.402;10.220;2023-01-04T09:16:10;100630.88;;;15.65;92.36
11395;BME280;5753;54.402;10.220;2023-01-04T09:18:36;100631.22;;;15.09;97.85
11395;BME280;5753;54.402;10.220;2023-01-04T09:21:13;100627.34;;;15.72;95.48
11395;BME280;5753;54.402;10.220;2023-01-04T09:23:41;100638.53;;;15.81;94.06
11395;BME280;5753;54.402;10.220;2023-01-04T09:26:15;100624.09;;;15.41;97.42
11395;BME280;5753;54.402;10.220;2023-01-04T09:28:42;100632.97;;;15.07;99.65
11395;BME280;5753;54.402;10.220;2023-01-04T09:31:11;100637.25;;;15.12;100.00
11395;BME280;5753;54.402;10.220;2023-01-04T09:33:37;100631.03;;;15.38;98.26
11395;BME280;5753;54.402;10.220;2023-01-04T09:36:06;100620.13;;;16.00;94.87
11395;BME280;5753;54.402;10.220;2023-01-04T09:38:33;100627.84;;;14.96;100.00
11395;BME280;5753;54.402;10.220;2023-01-04T09:41:19;100628.84;;;15.95;96.65
11395;BME280;5753;54.402;10.220;2023-01-04T09:46:33;100623.09;;;15.62;99.12
11395;BME280;5753;54.402;10.220;2023-01-04T09:49:23;100633.38;;;16.60;90.74
11395;BME280;5753;54.402;10.220;2023-01-04T09:51:59;100639.31;;;15.89;96.88
11395;BME280;5753;54.402;10.220;2023-01-04T09:54:41;100628.66;;;16.91;89.29
11395;BME280;5753;54.402;10.220;2023-01-04T10:00:24;100627.03;;;16.03;92.04
11395;BME280;5753;54.402;10.220;2023-01-04T10:05:31;100618.25;;;16.91;88.76
11395;BME280;5753;54.402;10.220;2023-01-04T10:07:57;100610.28;;;17.02;86.34
11395;BME280;5753;54.402;10.220;2023-01-04T10:11:18;100609.88;;;17.29;83.33
11395;BME280;5753;54.402;10.220;2023-01-04T10:21:41;100603.59;;;16.06;93.56
11395;BME280;5753;54.402;10.220;2023-01-04T10:24:35;100607.88;;;16.15;91.99
11395;BME280;5753;54.402;10.220;2023-01-04T10:32:43;100584.75;;;16.65;92.36
11395;BME280;5753;54.402;10.220;2023-01-04T10:35:18;100578.22;;;16.98;85.41
11395;BME280;5753;54.402;10.220;2023-01-04T10:37:47;100573.22;;;16.83;87.85
11395;BME280;5753;54.402;10.220;2023-01-04T10:40:16;100570.22;;;16.45;91.16
11395;BME280;5753;54.402;10.220;2023-01-04T10:46:08;100563.63;;;16.87;91.80
11395;BME280;5753;54.402;10.220;2023-01-04T10:51:07;100550.94;;;15.89;96.68
11395;BME280;5753;54.402;10.220;2023-01-04T10:53:55;100553.53;;;16.64;91.54
11395;BME280;5753;54.402;10.220;2023-01-04T10:59:39;100551.72;;;17.29;88.00
11395;BME280;5753;54.402;10.220;2023-01-04T11:02:05;100554.22;;;16.78;91.49
11395;BME280;5753;54.402;10.220;2023-01-04T11:04:37;100552.78;;;16.56;92.20
11395;BME280;5753;54.402;10.220;2023-01-04T11:07:33;100551.53;;;16.83;92.37
11395;BME280;5753;54.402;10.220;2023-01-04T11:12:45;100554.22;;;17.35;87.22
11395;BME280;5753;54.402;10.220;2023-01-04T11:15:11;100546.06;;;17.01;87.72
11395;BME280;5753;54.402;10.220;2023-01-04T11:17:38;100539.38;;;17.39;90.14
11395;BME280;5753;54.402;10.220;2023-01-04T11:20:06;100543.09;;;17.76;86.79
11395;BME280;5753;54.402;10.220;2023-01-04T11:25:14;100535.56;;;17.09;89.48
11395;BME280;5753;54.402;10.220;2023-01-04T11:27:51;100534.63;;;17.63;84.45
11395;BME280;5753;54.402;10.220;2023-01-04T11:30:22;100532.06;;;16.47;92.59
11395;BME280;5753;54.402;10.220;2023-01-04T11:33:02;100522.66;;;17.53;88.11
11395;BME280;5753;54.402;10.220;2023-01-04T11:35:45;100514.69;;;18.09;81.18
11395;BME280;5753;54.402;10.220;2023-01-04T11:38:15;100507.75;;;18.08;81.12
11395;BME280;5753;54.402;10.220;2023-01-04T11:40:54;100512.44;;;16.87;91.03
11395;BME280;5753;54.402;10.220;2023-01-04T11:43:22;100495.00;;;17.91;83.61
11395;BME280;5753;54.402;10.220;2023-01-04T11:48:40;100502.63;;;17.55;85.54
11395;BME280;5753;54.402;10.220;2023-01-04T11:54:15;100501.00;;;17.48;87.52
11395;BME280;5753;54.402;10.220;2023-01-04T11:59:28;100486.44;;;18.28;81.73
11395;BME280;5753;54.402;10.220;2023-01-04T12:02:18;100485.69;;;18.22;81.21
11395;BME280;5753;54.402;10.220;2023-01-04T12:04:44;100483.47;;;18.04;81.83
11395;BME280;5753;54.402;10.220;2023-01-04T12:09:58;100472.31;;;17.96;81.49
11395;BME280;5753;54.402;10.220;2023-01-04T12:12:30;100467.94;;;17.04;89.65
11395;BME280;5753;54.402;10.220;2023-01-04T12:17:54;100468.72;;;16.49;94.69
11395;BME280;5753;54.402;10.220;2023-01-04T12:20:26;100453.00;;;17.61;89.70
11395;BME280;5753;54.402;10.220;2023-01-04T12:22:52;100461.47;;;17.25;93.34
11395;BME280;5753;54.402;10.220;2023-01-04T12:25:43;100453.13;;;18.00;86.95
11395;BME280;5753;54.402;10.220;2023-01-04T12:28:35;100456.09;;;17.82;88.20
11395;BME280;5753;54.402;10.220;2023-01-04T12:33:50;100453.34;;;16.92;89.26
11395;BME280;5753;54.402;10.220;2023-01-04T12:36:52;100464.16;;;16.00;100.00
11395;BME280;5753;54.402;10.220;2023-01-04T12:50:22;100461.97;;;15.68;100.00
11395;BME280;5753;54.402;10.220;2023-01-04T12:52:54;100467.47;;;15.35;100.00
11395;BME280;5753;54.402;10.220;2023-01-04T12:55:50;100469.38;;;15.15;100.00
11395;BME280;5753;54.402;10.220;2023-01-04T13:06:05;100467.44;;;15.38;100.00
11395;BME280;5753;54.402;10.220;2023-01-04T13:08:39;100464.69;;;14.44;100.00
11395;BME280;5753;54.402;10.220;2023-01-04T13:11:33;100463.34;;;15.14;100.00
11395;BME280;5753;54.402;10.220;2023-01-04T13:14:25;100458.75;;;15.40;100.00
11395;BME280;5753;54.402;10.220;2023-01-04T13:17:24;100456.78;;;15.65;100.00
11395;BME280;5753;54.402;10.220;2023-01-04T13:19:51;100474.41;;;16.77;98.00
11395;BME280;5753;54.402;10.220;2023-01-04T13:22:28;100479.75;;;15.18;100.00
11395;BME280;5753;54.402;10.220;2023-01-04T13:24:57;100470.56;;;15.73;100.00
11395;BME280;5753;54.402;10.220;2023-01-04T13:27:24;100471.06;;;15.22;100.00
11395;BME280;5753;54.402;10.220;2023-01-04T13:29:51;100455.91;;;16.35;100.00
11395;BME280;5753;54.402;10.220;2023-01-04T13:34:52;100440.38;;;15.59;100.00
11395;BME280;5753;54.402;10.220;2023-01-04T13:37:28;100460.78;;;15.06;100.00
11395;BME280;5753;54.402;10.220;2023-01-04T13:42:46;100420.53;;;16.24;100.00
11395;BME280;5753;54.402;10.220;2023-01-04T13:45:33;100446.69;;;15.35;100.00
11395;BME280;5753;54.402;10.220;2023-01-04T13:48:07;100418.84;;;15.46;100.00
11395;BME280;5753;54.402;10.220;2023-01-04T13:50:40;100434.28;;;15.64;100.00
11395;BME280;5753;54.402;10.220;2023-01-04T13:53:26;100442.63;;;15.91;100.00
11395;BME280;5753;54.402;10.220;2023-01-04T13:55:59;100422.91;;;15.74;100.00
11395;BME280;5753;54.402;10.220;2023-01-04T13:58:30;100423.91;;;15.64;100.00
11395;BME280;5753;54.402;10.220;2023-01-04T14:01:05;100448.59;;;15.13;100.00
11395;BME280;5753;54.402;10.220;2023-01-04T14:03:55;100427.09;;;16.48;100.00
11395;BME280;5753;54.402;10.220;2023-01-04T14:06:43;100416.78;;;15.79;100.00
11395;BME280;5753;54.402;10.220;2023-01-04T14:11:43;100401.00;;;15.94;100.00
11395;BME280;5753;54.402;10.220;2023-01-04T14:17:15;100406.59;;;16.29;100.00
11395;BME280;5753;54.402;10.220;2023-01-04T14:19:45;100401.97;;;15.02;100.00
11395;BME280;5753;54.402;10.220;2023-01-04T14:24:49;100394.78;;;15.32;100.00
11395;BME280;5753;54.402;10.220;2023-01-04T14:27:33;100397.09;;;15.61;100.00
11395;BME280;5753;54.402;10.220;2023-01-04T14:30:46;100394.13;;;15.90;100.00
11395;BME280;5753;54.402;10.220;2023-01-04T14:32:58;100390.50;;;16.61;100.00
11395;BME280;5753;54.402;10.220;2023-01-04T14:35:26;100400.00;;;15.29;100.00
11395;BME280;5753;54.402;10.220;2023-01-04T14:37:53;100397.06;;;15.62;100.00
11395;BME280;5753;54.402;10.220;2023-01-04T14:40:24;100382.06;;;15.84;99.99
11395;BME280;5753;54.402;10.220;2023-01-04T14:42:54;100385.16;;;15.40;100.00
11395;BME280;5753;54.402;10.220;2023-01-04T14:45:21;100386.72;;;15.61;100.00
11395;BME280;5753;54.402;10.220;2023-01-04T14:47:48;100368.94;;;15.93;100.00
11395;BME280;5753;54.402;10.220;2023-01-04T14:50:15;100363.66;;;15.99;97.98
11395;BME280;5753;54.402;10.220;2023-01-04T14:52:50;100378.78;;;15.71;99.37
11395;BME280;5753;54.402;10.220;2023-01-04T14:55:16;100369.22;;;15.73;100.00
11395;BME280;5753;54.402;10.220;2023-01-04T14:57:42;100373.72;;;15.61;100.00
11395;BME280;5753;54.402;10.220;2023-01-04T15:00:14;100372.41;;;15.22;100.00
11395;BME280;5753;54.402;10.220;2023-01-04T15:02:41;100363.31;;;15.59;100.00
11395;BME280;5753;54.402;10.220;2023-01-04T15:05:08;100361.94;;;15.98;100.00
11395;BME280;5753;54.402;10.220;2023-01-04T15:07:36;100363.78;;;15.18;100.00